Time;durP1;ratioP1;P1;durP2;ratioP2;P2;SDS_P1;SDS_P2;PMS_P1;PMS_P2;Temp;Humidity;BMP_temperature;BMP_pressure;BME280_temperature;BME280_humidity;BME280_pressure;Samples;Min_cycle;Max_cycle;Signal;HPM_P1;HPM_P2
2023/02/26 00:01:16;;;;;;;4.93;0.70;;;;;;;0.42;100.00;100709.84;4974338;28;20509;-67
2023/02/26 00:03:44;;;;;;;5.90;0.87;;;;;;;0.33;100.00;100717.38;4974356;28;20481;-68
2023/02/26 00:06:11;;;;;;;7.27;0.80;;;;;;;0.34;100.00;100713.66;4974393;28;20545;-68
2023/02/26 00:08:37;;;;;;;5.60;0.70;;;;;;;0.29;100.00;100726.06;4974663;28;20446;-68
2023/02/26 00:11:07;;;;;;;4.70;0.70;;;;;;;0.30;100.00;100723.16;4974249;28;20466;-65
2023/02/26 00:13:34;;;;;;;5.50;1.00;;;;;;;0.37;100.00;100723.06;4974573;28;20818;-65
2023/02/26 00:16:01;;;;;;;4.50;0.73;;;;;;;0.35;100.00;100725.94;4974547;28;20456;-65
2023/02/26 00:18:29;;;;;;;4.40;0.67;;;;;;;0.30;100.00;100722.34;4974495;28;20823;-66
2023/02/26 00:20:57;;;;;;;6.83;0.57;;;;;;;0.21;100.00;100733.34;4973449;28;20541;-65
2023/02/26 00:23:24;;;;;;;4.93;0.50;;;;;;;0.28;100.00;100735.91;4974093;28;21080;-66
2023/02/26 00:25:51;;;;;;;5.37;0.60;;;;;;;0.09;100.00;100729.84;4974114;28;20446;-66
2023/02/26 00:28:18;;;;;;;4.67;0.60;;;;;;;0.15;100.00;100744.09;4974472;28;20464;-65
2023/02/26 00:30:45;;;;;;;4.63;0.60;;;;;;;0.18;100.00;100747.13;4974388;28;20445;-66
2023/02/26 00:33:12;;;;;;;5.27;0.67;;;;;;;0.13;100.00;100748.81;4974411;28;20897;-65
2023/02/26 00:35:39;;;;;;;4.40;0.67;;;;;;;-0.03;100.00;100750.31;4974128;28;20903;-66
2023/02/26 00:38:10;;;;;;;4.50;0.70;;;;;;;-0.07;100.00;100759.78;4974022;28;20456;-65
2023/02/26 00:40:41;;;;;;;7.97;1.57;;;;;;;0.07;100.00;100761.22;4974279;28;20876;-66
2023/02/26 00:43:13;;;;;;;8.20;0.93;;;;;;;0.12;100.00;100769.31;4973987;28;20437;-66
2023/02/26 00:45:46;;;;;;;6.53;0.60;;;;;;;0.10;100.00;100774.06;4974016;28;20910;-66
2023/02/26 00:48:35;;;;;;;6.63;0.67;;;;;;;0.10;100.00;100767.94;4974458;28;20437;-66
2023/02/26 00:51:09;;;;;;;6.20;1.20;;;;;;;0.15;100.00;100779.53;4974225;28;20466;-66
2023/02/26 00:53:46;;;;;;;5.07;0.80;;;;;;;0.17;100.00;100782.75;4974461;28;20430;-66
2023/02/26 00:56:13;;;;;;;5.60;0.47;;;;;;;0.30;100.00;100775.63;4974345;28;20429;-66
2023/02/26 00:58:40;;;;;;;4.30;0.60;;;;;;;0.29;100.00;100787.31;4974248;28;20473;-67
2023/02/26 01:01:06;;;;;;;5.00;0.93;;;;;;;0.41;100.00;100786.31;4973680;28;20478;-66
2023/02/26 01:03:34;;;;;;;8.00;0.80;;;;;;;0.41;100.00;100786.31;4973749;28;21082;-66
2023/02/26 01:06:01;;;;;;;7.00;0.60;;;;;;;0.39;100.00;100784.91;4974068;28;20544;-66
2023/02/26 01:08:33;;;;;;;5.60;0.77;;;;;;;0.50;100.00;100792.13;4973828;28;20442;-66
2023/02/26 01:11:02;;;;;;;4.20;0.50;;;;;;;0.46;100.00;100796.28;4973729;28;21017;-66
2023/02/26 01:13:29;;;;;;;4.47;0.60;;;;;;;0.50;100.00;100792.13;4974100;28;20449;-66
2023/02/26 01:16:05;;;;;;;4.30;0.50;;;;;;;0.52;100.00;100795.38;4973672;28;20536;-66
2023/02/26 01:18:38;;;;;;;4.20;0.50;;;;;;;0.59;100.00;100808.59;4974096;28;20430;-67
2023/02/26 01:21:08;;;;;;;4.30;0.50;;;;;;;0.53;100.00;100804.97;4973973;28;20466;-66
2023/02/26 01:23:40;;;;;;;4.67;0.70;;;;;;;0.45;100.00;100802.66;4973879;28;20492;-66
2023/02/26 01:26:15;;;;;;;4.50;0.83;;;;;;;0.44;100.00;100811.66;4973968;28;20517;-65
2023/02/26 01:28:42;;;;;;;5.33;0.77;;;;;;;0.47;100.00;100814.69;4973923;28;20434;-66
2023/02/26 01:31:20;;;;;;;9.80;0.93;;;;;;;0.52;100.00;100815.88;4974661;28;20472;-66
2023/02/26 01:33:53;;;;;;;4.63;0.70;;;;;;;0.39;100.00;100814.22;4977368;28;20429;-67
2023/02/26 01:36:22;;;;;;;11.30;0.70;;;;;;;0.35;100.00;100805.06;4977383;28;20436;-66
2023/02/26 01:38:57;;;;;;;4.47;0.73;;;;;;;0.41;100.00;100815.63;4977023;28;21001;-66
2023/02/26 01:41:31;;;;;;;4.60;0.73;;;;;;;0.40;100.00;100813.16;4977242;28;20483;-66
2023/02/26 01:44:09;;;;;;;8.20;0.80;;;;;;;0.43;100.00;100821.53;4977183;28;20474;-66
2023/02/26 01:46:45;;;;;;;6.03;1.00;;;;;;;0.48;100.00;100824.31;4976932;28;20444;-66
2023/02/26 01:49:14;;;;;;;5.40;0.77;;;;;;;0.37;100.00;100818.97;4977156;28;20418;-66
2023/02/26 01:51:47;;;;;;;8.83;1.10;;;;;;;0.37;100.00;100821.63;4976645;28;20556;-66
2023/02/26 01:54:15;;;;;;;4.60;0.53;;;;;;;0.29;100.00;100822.75;4977124;28;20426;-65
2023/02/26 01:56:45;;;;;;;6.27;0.60;;;;;;;0.28;99.75;100826.47;4977010;28;20813;-67
2023/02/26 01:59:16;;;;;;;4.30;0.53;;;;;;;0.27;100.00;100832.00;4977428;28;20446;-67
2023/02/26 02:01:42;;;;;;;4.20;0.57;;;;;;;0.34;100.00;100830.06;4976428;28;21028;-67
2023/02/26 02:04:14;;;;;;;4.20;0.53;;;;;;;0.27;100.00;100840.00;4976774;28;20489;-67
2023/02/26 02:06:43;;;;;;;4.97;0.80;;;;;;;0.29;100.00;100837.94;4976850;28;20474;-67
2023/02/26 02:09:10;;;;;;;4.40;0.70;;;;;;;0.41;100.00;100844.94;4976450;28;20450;-66
2023/02/26 02:11:48;;;;;;;4.40;0.63;;;;;;;0.48;100.00;100852.81;4976624;28;20549;-67
2023/02/26 02:14:24;;;;;;;4.20;0.60;;;;;;;0.38;99.37;100847.22;4976379;28;20429;-67
2023/02/26 02:16:58;;;;;;;5.13;0.80;;;;;;;0.43;99.92;100850.03;4976739;28;20441;-67
2023/02/26 02:20:00;;;;;;;5.10;0.80;;;;;;;0.35;98.75;100853.00;4976470;28;20517;-66
2023/02/26 02:22:51;;;;;;;4.80;0.70;;;;;;;0.33;99.82;100863.09;4972713;28;20473;-66
2023/02/26 02:25:35;;;;;;;5.23;0.60;;;;;;;0.29;99.00;100864.56;4976279;28;20982;-65
2023/02/26 02:28:13;;;;;;;7.50;0.90;;;;;;;0.31;99.51;100875.81;4976339;28;20426;-67
2023/02/26 02:30:52;;;;;;;7.27;0.80;;;;;;;0.31;99.91;100878.47;4976426;28;20537;-66
2023/02/26 02:33:23;;;;;;;5.83;0.53;;;;;;;0.34;99.23;100884.16;4976619;28;20520;-66
2023/02/26 02:35:55;;;;;;;4.40;0.67;;;;;;;0.30;98.96;100879.50;4976300;28;20960;-66
2023/02/26 02:38:27;;;;;;;4.57;0.60;;;;;;;0.32;99.95;100880.94;4976553;28;20434;-67
2023/02/26 02:41:01;;;;;;;4.10;0.43;;;;;;;0.30;99.34;100883.00;4976025;28;20501;-66
2023/02/26 02:43:32;;;;;;;4.37;0.57;;;;;;;0.14;98.54;100886.28;4975634;28;20514;-67
2023/02/26 02:46:04;;;;;;;5.57;0.87;;;;;;;0.25;99.56;100890.84;4975897;28;20929;-66
2023/02/26 02:48:34;;;;;;;7.50;0.60;;;;;;;0.29;99.15;100897.34;4976168;28;20525;-66
2023/02/26 02:51:04;;;;;;;8.03;0.80;;;;;;;0.33;98.71;100898.53;4976436;28;20489;-67
2023/02/26 02:53:36;;;;;;;6.00;0.90;;;;;;;0.25;98.37;100904.16;4975833;28;20614;-66
2023/02/26 02:56:08;;;;;;;7.37;0.67;;;;;;;0.22;98.66;100913.44;4976062;28;20458;-67
2023/02/26 02:58:40;;;;;;;4.40;0.60;;;;;;;0.31;98.23;100908.63;4976012;28;20500;-67
2023/02/26 03:01:12;;;;;;;4.20;0.60;;;;;;;0.35;98.31;100907.09;4975625;28;20480;-67
2023/02/26 03:03:44;;;;;;;21.23;1.33;;;;;;;0.32;98.09;100907.56;4975517;28;20433;-67
2023/02/26 03:06:11;;;;;;;5.10;0.80;;;;;;;0.33;98.48;100909.19;4975987;28;20521;-67
2023/02/26 03:08:41;;;;;;;4.60;0.70;;;;;;;0.37;97.56;100910.38;4975392;28;20450;-67
2023/02/26 03:11:08;;;;;;;4.60;0.60;;;;;;;0.45;98.12;100918.06;4975598;28;20474;-67
2023/02/26 03:13:35;;;;;;;4.10;0.40;;;;;;;0.43;98.27;100917.44;4975589;28;20454;-67
2023/02/26 03:16:18;;;;;;;5.80;0.80;;;;;;;0.42;98.36;100933.66;4975546;28;20442;-68
2023/02/26 03:18:53;;;;;;;4.93;0.50;;;;;;;0.47;98.47;100933.81;4975538;28;20521;-67
2023/02/26 03:21:27;;;;;;;4.20;0.40;;;;;;;0.46;98.80;100927.66;4975081;28;20994;-67
2023/02/26 03:24:02;;;;;;;4.40;0.67;;;;;;;0.48;98.67;100938.88;4975267;28;20434;-67
2023/02/26 03:26:33;;;;;;;8.53;0.80;;;;;;;0.58;98.80;100948.22;4975121;28;20484;-67
2023/02/26 03:29:08;;;;;;;4.73;0.70;;;;;;;0.48;97.91;100951.41;4975009;28;20546;-67
2023/02/26 03:31:46;;;;;;;12.40;1.13;;;;;;;0.47;98.73;100955.13;4975198;28;20471;-67
2023/02/26 03:34:17;;;;;;;6.23;1.00;;;;;;;0.55;99.39;100965.47;4974894;28;20951;-67
2023/02/26 03:36:51;;;;;;;4.20;0.60;;;;;;;0.61;98.61;100963.75;4974856;28;20438;-67
2023/02/26 03:39:23;;;;;;;4.10;0.40;;;;;;;0.60;98.15;100973.59;4975166;28;20426;-67
2023/02/26 03:41:56;;;;;;;7.63;0.83;;;;;;;0.60;98.50;100965.59;4975027;28;20520;-67
2023/02/26 03:44:29;;;;;;;4.63;0.60;;;;;;;0.59;97.27;100966.66;4975010;28;20477;-67
2023/02/26 03:47:00;;;;;;;5.20;0.70;;;;;;;0.64;98.22;100980.09;4975106;28;20457;-67
2023/02/26 03:49:32;;;;;;;6.70;0.77;;;;;;;0.57;97.30;100984.69;4974998;28;20875;-67
2023/02/26 03:52:00;;;;;;;4.33;0.60;;;;;;;0.55;97.07;100986.78;4974609;28;20454;-67
2023/02/26 03:54:33;;;;;;;4.57;0.73;;;;;;;0.36;96.15;100993.19;4974362;28;20511;-69
2023/02/26 03:57:00;;;;;;;4.70;0.60;;;;;;;0.42;96.92;100994.94;4974675;28;20425;-68
2023/02/26 03:59:27;;;;;;;4.10;0.50;;;;;;;0.45;96.61;101000.66;4974801;28;20454;-66
2023/02/26 04:01:59;;;;;;;4.40;0.60;;;;;;;0.37;96.92;101000.94;4974700;28;20552;-66
2023/02/26 04:04:30;;;;;;;4.40;0.60;;;;;;;0.46;97.06;101012.13;4974609;28;20470;-66
2023/02/26 04:06:57;;;;;;;4.50;0.63;;;;;;;0.49;97.86;101014.34;4974227;28;20525;-66
2023/02/26 04:09:24;;;;;;;5.17;0.87;;;;;;;0.53;97.18;101012.84;4974638;28;20858;-66
2023/02/26 04:11:53;;;;;;;5.47;0.60;;;;;;;0.56;97.04;101015.06;4974191;28;20911;-66
2023/02/26 04:14:19;;;;;;;4.93;0.60;;;;;;;0.57;96.43;101019.34;4974552;28;20445;-66
2023/02/26 04:16:47;;;;;;;4.70;0.60;;;;;;;0.62;97.05;101030.19;4974263;28;20621;-66
2023/02/26 04:19:15;;;;;;;6.70;0.67;;;;;;;0.58;96.02;101034.31;4974788;28;20446;-65
2023/02/26 04:21:41;;;;;;;5.63;0.80;;;;;;;0.62;98.15;101037.34;4974446;28;20561;-66
2023/02/26 04:24:08;;;;;;;4.40;0.57;;;;;;;0.67;98.00;101035.66;4974167;28;20438;-68
2023/02/26 04:26:35;;;;;;;4.40;0.60;;;;;;;0.71;98.41;101042.16;4974188;28;20946;-66
2023/02/26 04:29:01;;;;;;;4.47;0.50;;;;;;;0.75;97.73;101045.16;4974467;28;20545;-66
2023/02/26 04:31:28;;;;;;;4.80;0.67;;;;;;;0.63;96.31;101052.31;4974086;28;20473;-67
2023/02/26 04:33:54;;;;;;;4.47;0.77;;;;;;;0.56;96.78;101051.56;4974081;28;20973;-66
2023/02/26 04:36:22;;;;;;;6.10;0.73;;;;;;;0.59;97.38;101057.25;4974343;28;20438;-66
2023/02/26 04:38:49;;;;;;;4.90;0.73;;;;;;;0.63;96.40;101060.31;4974355;28;20450;-66
2023/02/26 04:41:15;;;;;;;5.27;0.83;;;;;;;0.71;96.67;101055.50;4974256;28;20544;-66
2023/02/26 04:43:42;;;;;;;6.40;0.80;;;;;;;0.56;94.98;101062.22;4974034;28;20803;-66
2023/02/26 04:46:08;;;;;;;7.80;1.37;;;;;;;0.57;96.15;101064.66;4974187;28;20866;-66
2023/02/26 04:48:35;;;;;;;4.50;0.50;;;;;;;0.64;97.99;101067.25;4974219;28;20471;-67
2023/02/26 04:51:02;;;;;;;5.07;0.67;;;;;;;0.56;95.09;101068.38;4973822;28;20501;-67
2023/02/26 04:53:30;;;;;;;4.93;0.63;;;;;;;0.58;96.78;101076.97;4973957;28;20939;-67
2023/02/26 04:55:56;;;;;;;6.80;0.80;;;;;;;0.65;96.72;101076.88;4974209;28;20444;-67
2023/02/26 04:58:23;;;;;;;5.90;0.53;;;;;;;0.71;95.97;101076.00;4974235;28;20545;-67
2023/02/26 05:00:50;;;;;;;4.30;0.60;;;;;;;0.65;95.64;101082.22;4973746;28;20482;-67
2023/02/26 05:03:17;;;;;;;4.40;0.57;;;;;;;0.62;95.56;101080.81;4974130;28;20444;-67
2023/02/26 05:05:44;;;;;;;6.60;1.00;;;;;;;0.55;95.11;101085.41;4974298;28;20481;-67
2023/02/26 05:08:11;;;;;;;5.60;0.80;;;;;;;0.66;95.82;101089.97;4977847;28;20438;-66
2023/02/26 05:10:39;;;;;;;4.60;0.70;;;;;;;0.71;95.52;101098.13;4977462;28;20455;-66
2023/02/26 05:13:06;;;;;;;4.30;0.57;;;;;;;0.68;93.86;101092.44;4977506;28;20449;-67
2023/02/26 05:15:33;;;;;;;4.20;0.50;;;;;;;0.57;93.63;101101.16;4977736;28;20487;-66
2023/02/26 05:18:00;;;;;;;7.80;0.90;;;;;;;0.58;94.29;101102.81;4977637;28;20446;-66
2023/02/26 05:20:26;;;;;;;8.13;0.60;;;;;;;0.59;94.00;101105.25;4977377;28;21025;-66
2023/02/26 05:22:53;;;;;;;4.67;0.70;;;;;;;0.54;93.38;101110.44;4977589;28;20476;-67
2023/02/26 05:25:20;;;;;;;4.93;0.50;;;;;;;0.55;95.51;101112.06;4977040;28;21025;-67
2023/02/26 05:27:48;;;;;;;4.37;0.70;;;;;;;0.59;94.33;101117.75;4977376;28;20452;-67
2023/02/26 05:30:16;;;;;;;4.60;0.70;;;;;;;0.66;94.42;101111.28;4977477;28;20448;-66
2023/02/26 05:32:43;;;;;;;4.07;0.40;;;;;;;0.60;93.89;101114.84;4977096;28;20545;-66
2023/02/26 05:35:11;;;;;;;4.37;0.63;;;;;;;0.58;93.75;101122.28;4977501;28;20450;-67
2023/02/26 05:37:38;;;;;;;4.30;0.60;;;;;;;0.63;94.49;101125.09;4977418;28;20481;-67
2023/02/26 05:40:05;;;;;;;4.20;0.50;;;;;;;0.73;94.99;101133.38;4976993;28;20442;-65
2023/02/26 05:42:32;;;;;;;4.20;0.50;;;;;;;0.68;94.42;101141.22;4976873;28;20497;-66
2023/02/26 05:45:00;;;;;;;4.90;0.73;;;;;;;0.71;94.05;101135.47;4978640;28;20581;-66
2023/02/26 05:47:26;;;;;;;4.20;0.53;;;;;;;0.73;93.53;101135.22;4977178;28;20450;-66
2023/02/26 05:49:53;;;;;;;4.60;0.70;;;;;;;0.65;92.41;101149.66;4977023;28;20457;-66
2023/02/26 05:52:20;;;;;;;4.50;0.60;;;;;;;0.67;92.84;101149.47;4976884;28;20832;-66
2023/02/26 05:54:46;;;;;;;4.13;0.40;;;;;;;0.73;94.25;101149.38;4977009;28;20442;-66
2023/02/26 05:57:13;;;;;;;4.03;0.40;;;;;;;0.50;91.10;101166.00;4976607;28;20481;-66
2023/02/26 05:59:39;;;;;;;4.50;0.70;;;;;;;0.59;92.37;101165.72;4976685;28;20453;-66
2023/02/26 06:02:08;;;;;;;5.10;0.77;;;;;;;0.69;92.60;101174.03;4976556;28;20469;-67
2023/02/26 06:04:35;;;;;;;4.20;0.50;;;;;;;0.72;93.45;101169.06;4976650;28;20440;-67
2023/02/26 06:07:02;;;;;;;4.23;0.63;;;;;;;0.77;93.81;101176.41;4976804;28;20541;-67
2023/02/26 06:09:29;;;;;;;4.73;0.63;;;;;;;0.71;93.65;101178.13;4976742;28;20557;-66
2023/02/26 06:11:55;;;;;;;4.17;0.50;;;;;;;0.68;93.00;101183.88;4976624;28;20468;-66
2023/02/26 06:14:22;;;;;;;4.50;0.60;;;;;;;0.74;93.50;101193.66;4976676;28;20442;-67
2023/02/26 06:16:49;;;;;;;4.90;0.73;;;;;;;0.85;93.54;101196.66;4976330;28;20477;-67
2023/02/26 06:19:17;;;;;;;5.60;0.60;;;;;;;0.81;93.66;101198.13;4975446;28;20537;-66
2023/02/26 06:21:43;;;;;;;4.10;0.50;;;;;;;0.73;91.80;101196.53;4976524;28;20903;-65
2023/02/26 06:24:10;;;;;;;4.30;0.50;;;;;;;0.69;91.60;101198.84;4976511;28;20450;-66
2023/02/26 06:26:36;;;;;;;4.03;0.50;;;;;;;0.70;93.17;101202.31;4976380;28;20491;-66
2023/02/26 06:29:03;;;;;;;4.60;0.60;;;;;;;0.82;92.73;101205.06;4976384;28;20464;-66
2023/02/26 06:31:30;;;;;;;4.10;0.50;;;;;;;0.65;90.45;101216.28;4976331;28;20520;-66
2023/02/26 06:33:56;;;;;;;4.30;0.50;;;;;;;0.64;91.45;101220.00;4976352;28;20529;-66
2023/02/26 06:36:24;;;;;;;4.80;0.60;;;;;;;0.71;91.75;101226.09;4976278;28;20434;-66
2023/02/26 06:38:51;;;;;;;4.10;0.60;;;;;;;0.78;92.08;101227.88;4976205;28;20446;-66
2023/02/26 06:41:17;;;;;;;4.20;0.50;;;;;;;0.73;90.52;101231.22;4976101;28;20468;-65
2023/02/26 06:43:44;;;;;;;4.67;0.80;;;;;;;0.85;91.17;101236.63;4975848;28;20524;-66
2023/02/26 06:46:11;;;;;;;4.40;0.60;;;;;;;0.93;91.93;101239.00;4975766;28;20862;-66
2023/02/26 06:48:37;;;;;;;7.73;0.90;;;;;;;0.95;91.97;101248.41;4976055;28;20442;-66
2023/02/26 06:51:04;;;;;;;6.00;0.70;;;;;;;0.95;91.57;101253.75;4975646;28;20458;-66
2023/02/26 06:53:32;;;;;;;5.33;0.60;;;;;;;0.98;92.76;101253.31;4975955;28;20457;-66
2023/02/26 06:55:59;;;;;;;5.43;0.70;;;;;;;0.89;90.21;101259.16;4975974;28;20452;-66
2023/02/26 06:58:25;;;;;;;4.23;0.50;;;;;;;0.81;90.40;101268.25;4975568;28;20822;-66
2023/02/26 07:00:52;;;;;;;4.00;0.43;;;;;;;0.77;90.15;101266.25;4975542;28;20478;-66
2023/02/26 07:03:19;;;;;;;4.03;0.40;;;;;;;0.75;91.08;101263.78;4975596;28;20533;-66
2023/02/26 07:05:46;;;;;;;4.07;0.50;;;;;;;0.74;89.69;101276.28;4975671;28;20496;-66
2023/02/26 07:08:14;;;;;;;4.00;0.40;;;;;;;0.71;89.41;101282.09;4975690;28;20533;-66
2023/02/26 07:10:42;;;;;;;4.20;0.63;;;;;;;0.89;90.67;101285.84;4975783;28;20481;-67
2023/02/26 07:13:09;;;;;;;7.40;1.17;;;;;;;0.92;90.45;101285.38;4975289;28;20823;-67
2023/02/26 07:15:35;;;;;;;4.40;0.63;;;;;;;0.95;89.62;101291.09;4975536;28;20438;-66
2023/02/26 07:18:02;;;;;;;5.23;0.50;;;;;;;0.82;88.76;101290.41;4975488;28;20438;-66
2023/02/26 07:20:29;;;;;;;6.67;0.60;;;;;;;0.77;88.50;101303.56;4975332;28;20449;-66
2023/02/26 07:22:56;;;;;;;4.67;0.90;;;;;;;0.70;89.35;101298.28;4975391;28;20453;-67
2023/02/26 07:25:23;;;;;;;4.60;0.60;;;;;;;0.79;90.21;101315.63;4975263;28;20478;-66
2023/02/26 07:27:51;;;;;;;4.37;0.60;;;;;;;0.65;89.05;101312.25;4975296;28;20458;-67
2023/02/26 07:30:18;;;;;;;5.90;0.93;;;;;;;0.73;88.75;101320.00;4974819;28;20449;-67
2023/02/26 07:32:45;;;;;;;4.83;0.67;;;;;;;0.70;89.04;101322.28;4975148;28;20477;-66
2023/02/26 07:35:11;;;;;;;4.50;0.70;;;;;;;0.74;89.48;101324.28;4975227;28;20715;-66
2023/02/26 07:37:38;;;;;;;5.30;0.67;;;;;;;0.77;88.28;101332.91;4975134;28;20448;-67
2023/02/26 07:40:06;;;;;;;5.03;0.60;;;;;;;0.83;88.07;101334.69;4975039;28;20448;-66
2023/02/26 07:42:32;;;;;;;8.23;0.57;;;;;;;0.75;87.71;101341.09;4974881;28;20495;-67
2023/02/26 07:45:01;;;;;;;6.60;0.73;;;;;;;0.92;89.64;101338.72;4974995;28;20524;-66
2023/02/26 07:47:29;;;;;;;4.20;0.60;;;;;;;0.91;87.34;101335.22;4974942;28;20482;-67
2023/02/26 07:49:55;;;;;;;8.23;0.80;;;;;;;0.94;88.61;101350.81;4974996;28;20450;-66
2023/02/26 07:52:22;;;;;;;4.87;0.60;;;;;;;0.97;87.63;101352.19;4974833;28;20472;-66
2023/02/26 07:54:49;;;;;;;5.33;0.67;;;;;;;0.95;87.67;101354.28;4974789;28;20442;-64
2023/02/26 07:57:15;;;;;;;4.57;0.53;;;;;;;0.98;88.58;101364.53;4974555;28;20994;-66
2023/02/26 07:59:42;;;;;;;4.63;0.60;;;;;;;1.00;88.74;101365.13;4974446;28;21020;-66
2023/02/26 08:02:10;;;;;;;4.20;0.67;;;;;;;0.98;88.14;101365.34;4974700;28;20834;-66
2023/02/26 08:04:36;;;;;;;4.00;0.43;;;;;;;0.90;87.22;101372.78;4974687;28;20446;-67
2023/02/26 08:07:03;;;;;;;7.30;1.03;;;;;;;1.00;88.69;101378.44;4974594;28;20482;-66
2023/02/26 08:09:30;;;;;;;4.20;0.40;;;;;;;0.96;88.41;101382.59;4974680;28;20559;-67
2023/02/26 08:11:57;;;;;;;5.03;0.60;;;;;;;0.91;86.97;101385.09;4974614;28;20509;-67
2023/02/26 08:14:24;;;;;;;4.10;0.50;;;;;;;0.81;86.92;101382.09;4974590;28;20529;-66
2023/02/26 08:16:52;;;;;;;4.90;0.63;;;;;;;0.82;89.29;101378.38;4974343;28;20939;-66
2023/02/26 08:19:19;;;;;;;7.00;1.33;;;;;;;0.73;87.46;101383.97;4974263;28;20939;-66
2023/02/26 08:21:46;;;;;;;4.10;0.50;;;;;;;0.88;87.78;101388.19;4974184;28;20557;-67
2023/02/26 08:24:13;;;;;;;11.03;0.90;;;;;;;0.95;86.70;101384.44;4974512;28;20449;-68
2023/02/26 08:26:39;;;;;;;4.70;0.60;;;;;;;0.93;87.02;101399.00;4974367;28;20492;-66
2023/02/26 08:29:07;;;;;;;4.90;0.73;;;;;;;0.97;85.83;101395.72;4974447;28;20438;-66
2023/02/26 08:31:34;;;;;;;7.33;1.17;;;;;;;1.00;87.32;101400.59;4974401;28;20468;-64
2023/02/26 08:34:01;;;;;;;7.60;0.73;;;;;;;1.05;88.07;101399.94;4974371;28;20438;-65
2023/02/26 08:36:29;;;;;;;4.10;0.63;;;;;;;1.11;89.68;101398.28;4974092;28;20978;-64
2023/02/26 08:38:57;;;;;;;4.80;0.73;;;;;;;1.20;89.64;101402.31;4974309;28;20468;-66
2023/02/26 08:41:26;;;;;;;10.03;0.80;;;;;;;1.26;87.11;101409.44;4975607;28;20473;-64
2023/02/26 08:43:52;;;;;;;4.70;0.70;;;;;;;1.22;86.88;101414.38;4978351;28;20453;-65
2023/02/26 08:46:19;;;;;;;5.03;0.70;;;;;;;1.26;86.26;101414.75;4977848;28;20491;-66
2023/02/26 08:48:45;;;;;;;4.00;0.60;;;;;;;1.30;86.27;101415.16;4978152;28;20536;-66
2023/02/26 08:51:12;;;;;;;5.43;0.60;;;;;;;1.35;88.07;101417.97;4978109;28;20464;-66
2023/02/26 08:53:40;;;;;;;4.77;0.63;;;;;;;1.29;86.93;101432.19;4978134;28;20497;-65
2023/02/26 08:56:07;;;;;;;4.70;0.70;;;;;;;1.30;85.47;101425.81;4978084;28;20480;-66
2023/02/26 08:58:34;;;;;;;4.10;0.57;;;;;;;1.33;86.70;101431.53;4977792;28;20914;-66
2023/02/26 09:01:00;;;;;;;4.20;0.50;;;;;;;1.32;84.03;101439.75;4977544;28;20840;-66
2023/02/26 09:03:27;;;;;;;5.90;0.90;;;;;;;1.34;85.54;101443.03;4977726;28;20968;-66
2023/02/26 09:05:53;;;;;;;4.40;0.80;;;;;;;1.36;87.36;101443.63;4977544;28;20491;-66
2023/02/26 09:08:21;;;;;;;4.67;0.90;;;;;;;1.42;86.91;101448.09;4977943;28;20553;-66
2023/02/26 09:10:49;;;;;;;4.43;0.67;;;;;;;1.38;85.53;101442.38;4977747;28;20442;-66
2023/02/26 09:13:15;;;;;;;4.20;0.60;;;;;;;1.46;85.98;101451.94;4978025;28;20446;-66
2023/02/26 09:15:42;;;;;;;5.77;0.67;;;;;;;1.48;86.16;101455.22;4977799;28;20445;-66
2023/02/26 09:18:14;;;;;;;9.20;1.00;;;;;;;1.51;85.92;101460.13;4977418;28;20964;-64
2023/02/26 09:20:41;;;;;;;4.00;0.40;;;;;;;1.53;83.50;101463.38;4977589;28;20445;-66
2023/02/26 09:23:07;;;;;;;5.07;0.70;;;;;;;1.58;86.02;101468.88;4977594;28;20479;-65
2023/02/26 09:25:34;;;;;;;4.20;0.60;;;;;;;1.58;84.54;101476.06;4977704;28;20449;-66
2023/02/26 09:28:02;;;;;;;6.20;0.80;;;;;;;1.64;85.00;101470.69;4977464;28;20572;-66
2023/02/26 09:30:29;;;;;;;4.60;0.80;;;;;;;1.64;85.64;101477.84;4977089;28;20446;-65
2023/02/26 09:32:55;;;;;;;4.93;0.87;;;;;;;1.69;85.21;101486.88;4977386;28;20473;-66
2023/02/26 09:35:22;;;;;;;4.20;0.50;;;;;;;1.75;85.29;101488.66;4977142;28;20537;-67
2023/02/26 09:37:50;;;;;;;5.77;0.83;;;;;;;1.81;84.67;101486.13;4977396;28;20444;-69
2023/02/26 09:40:25;;;;;;;7.03;0.77;;;;;;;1.78;83.46;101492.75;4977448;28;20453;-69
2023/02/26 09:43:27;;;;;;;8.77;0.80;;;;;;;1.80;84.41;101495.19;4977330;28;20508;-66
2023/02/26 09:45:56;;;;;;;4.40;0.57;;;;;;;1.86;81.70;101504.97;4972784;28;20463;-67
2023/02/26 09:48:24;;;;;;;5.80;0.70;;;;;;;1.93;83.59;101505.75;4977228;28;20448;-68
2023/02/26 09:50:53;;;;;;;5.10;0.67;;;;;;;2.02;83.83;101504.41;4976734;28;21050;-68
2023/02/26 09:53:22;;;;;;;4.70;0.70;;;;;;;2.12;83.67;101514.59;4975453;28;20495;-67
2023/02/26 09:55:50;;;;;;;4.27;0.60;;;;;;;2.23;84.95;101517.34;4977093;28;20452;-67
2023/02/26 09:58:22;;;;;;;7.53;0.80;;;;;;;2.23;80.39;101514.66;4977250;28;20471;-68
2023/02/26 10:01:00;;;;;;;6.00;0.93;;;;;;;2.27;79.53;101521.22;4976785;28;20488;-67
2023/02/26 10:03:33;;;;;;;6.50;0.70;;;;;;;2.14;78.40;101526.69;4976878;28;20437;-66
2023/02/26 10:06:20;;;;;;;6.33;0.80;;;;;;;2.10;79.78;101525.50;4977217;28;20454;-67
2023/02/26 10:08:59;;;;;;;5.50;0.97;;;;;;;2.08;79.22;101529.41;4977030;28;20525;-69
2023/02/26 10:11:34;;;;;;;5.50;0.70;;;;;;;2.10;80.77;101528.19;4976790;28;20461;-69
2023/02/26 10:14:07;;;;;;;4.40;0.60;;;;;;;2.07;78.72;101538.47;4976678;28;20516;-69
2023/02/26 10:16:37;;;;;;;7.60;0.83;;;;;;;2.05;77.97;101540.56;4976762;28;20434;-69
2023/02/26 10:19:07;;;;;;;5.53;0.60;;;;;;;2.10;78.20;101538.88;4976307;28;20513;-69
2023/02/26 10:21:40;;;;;;;4.40;0.50;;;;;;;2.16;80.69;101548.66;4976513;28;20462;-69
2023/02/26 10:24:13;;;;;;;4.40;0.67;;;;;;;2.24;79.17;101545.69;4976377;28;20931;-69
2023/02/26 10:26:44;;;;;;;4.00;0.40;;;;;;;2.35;77.92;101546.03;4976495;28;20469;-69
2023/02/26 10:29:19;;;;;;;4.60;0.53;;;;;;;2.24;76.42;101561.75;4976534;28;20430;-69
2023/02/26 10:31:57;;;;;;;4.80;0.70;;;;;;;2.21;73.82;101556.84;4976385;28;20461;-69
2023/02/26 10:34:29;;;;;;;3.97;0.43;;;;;;;2.29;73.78;101558.41;4976346;28;20433;-68
2023/02/26 10:37:04;;;;;;;4.10;0.50;;;;;;;2.37;74.72;101559.97;4976301;28;20496;-69
2023/02/26 10:39:35;;;;;;;5.10;0.70;;;;;;;2.39;71.91;101561.41;4976339;28;20437;-69
2023/02/26 10:42:04;;;;;;;4.33;0.70;;;;;;;2.45;70.36;101565.84;4975889;28;20822;-69
2023/02/26 10:44:40;;;;;;;5.77;1.57;;;;;;;2.62;70.35;101574.09;4976118;28;20446;-69
2023/02/26 10:47:19;;;;;;;4.40;0.70;;;;;;;2.70;69.75;101568.44;4975967;28;20840;-69
2023/02/26 10:49:54;;;;;;;5.57;0.70;;;;;;;2.90;74.93;101568.19;4976097;28;20528;-67
2023/02/26 10:52:24;;;;;;;4.20;0.50;;;;;;;3.05;72.03;101575.78;4976070;28;20471;-69
2023/02/26 10:55:25;;;;;;;4.70;0.70;;;;;;;2.87;67.24;101578.50;4975703;28;20925;-69
2023/02/26 10:57:57;;;;;;;5.60;0.77;;;;;;;2.63;66.75;101581.06;4975978;28;20421;-69
2023/02/26 11:00:25;;;;;;;4.90;0.90;;;;;;;2.63;65.86;101581.06;4975803;28;20453;-69
2023/02/26 11:02:54;;;;;;;4.23;0.50;;;;;;;2.72;66.00;101571.69;4975730;28;20470;-69
2023/02/26 11:05:23;;;;;;;4.10;0.50;;;;;;;2.93;67.17;101581.13;4975282;28;20991;-69
2023/02/26 11:07:54;;;;;;;5.13;0.97;;;;;;;2.98;60.25;101588.47;4975642;28;20576;-69
2023/02/26 11:10:24;;;;;;;4.83;0.60;;;;;;;2.98;59.76;101588.47;4975759;28;20438;-69
2023/02/26 11:12:51;;;;;;;5.70;0.60;;;;;;;3.10;62.68;101591.19;4975191;28;21099;-68
2023/02/26 11:15:21;;;;;;;4.50;0.70;;;;;;;3.20;62.45;101586.13;4975647;28;20446;-69
2023/02/26 11:17:54;;;;;;;4.93;0.70;;;;;;;3.39;63.86;101592.22;4975562;28;20446;-69
2023/02/26 11:20:30;;;;;;;4.20;0.50;;;;;;;3.63;66.08;101591.25;4975342;28;20466;-69
2023/02/26 11:22:59;;;;;;;5.90;0.70;;;;;;;3.93;65.63;101585.00;4975493;28;20513;-68
2023/02/26 11:25:30;;;;;;;6.77;0.67;;;;;;;4.21;65.79;101590.50;4975460;28;20460;-69
2023/02/26 11:28:01;;;;;;;4.60;0.60;;;;;;;4.33;61.99;101616.47;4974978;28;20473;-69
2023/02/26 11:30:32;;;;;;;6.03;0.73;;;;;;;4.03;61.33;101617.44;4975440;28;20521;-69
2023/02/26 11:33:13;;;;;;;6.43;0.90;;;;;;;3.53;60.15;101617.78;4975333;28;20431;-69
2023/02/26 11:35:40;;;;;;;4.20;0.50;;;;;;;3.35;62.40;101621.31;4974902;28;20982;-70
2023/02/26 11:38:16;;;;;;;6.73;0.80;;;;;;;3.24;63.87;101617.56;4975286;28;20468;-69
2023/02/26 11:40:47;;;;;;;5.83;0.67;;;;;;;3.44;64.71;101628.00;4975135;28;20781;-70
2023/02/26 11:43:17;;;;;;;5.90;0.80;;;;;;;4.38;64.43;101611.22;4974773;28;20432;-69